Time;durP1;ratioP1;P1;durP2;ratioP2;P2;SDS_P1;SDS_P2;PMS_P1;PMS_P2;Temp;Humidity;BMP_temperature;BMP_pressure;BME280_temperature;BME280_humidity;BME280_pressure;Samples;Min_cycle;Max_cycle;Signal;HPM_P1;HPM_P2
2023/01/06 07:35:54;;;;;;;0.77;0.77;;;11.10;99.90;11.70;101452.00;;;;5071156;28;20231;-68
2023/01/06 07:38:21;;;;;;;0.40;0.40;;;11.20;99.90;11.50;101446.00;;;;5096630;28;20197;-67
2023/01/06 07:40:47;;;;;;;0.47;0.47;;;11.20;99.90;11.60;101452.00;;;;5092673;28;20686;-67
2023/01/06 07:43:13;;;;;;;0.83;0.83;;;11.20;99.90;11.30;101454.00;;;;5064156;28;20276;-67
2023/01/06 07:45:39;;;;;;;0.37;0.37;;;11.20;99.90;11.40;101449.00;;;;5089714;28;20232;-67
2023/01/06 07:48:05;;;;;;;1.17;0.57;;;11.20;99.90;11.30;101453.00;;;;5078222;28;20215;-67
2023/01/06 07:50:32;;;;;;;0.70;0.70;;;11.10;99.90;11.30;101442.00;;;;5097936;28;20670;-67
2023/01/06 07:53:00;;;;;;;0.37;0.37;;;11.10;99.90;11.90;101457.00;;;;5084902;28;20228;-67
2023/01/06 07:55:26;;;;;;;0.20;0.20;;;11.20;99.90;11.50;101448.00;;;;5085955;28;20202;-67
2023/01/06 07:57:53;;;;;;;0.30;0.30;;;11.20;99.90;11.60;101442.00;;;;5082102;28;20219;-67
2023/01/06 08:00:19;;;;;;;1.07;1.07;;;11.30;99.90;11.60;101438.00;;;;5085722;28;20208;-67
2023/01/06 08:02:46;;;;;;;0.50;0.50;;;11.20;99.90;11.70;101435.00;;;;5083653;28;20289;-67
2023/01/06 08:05:12;;;;;;;0.50;0.50;;;11.20;99.90;12.10;101435.00;;;;5083481;28;20434;-67
2023/01/06 08:07:38;;;;;;;1.00;0.77;;;11.30;99.90;12.00;101443.00;;;;5087239;28;20213;-71
2023/01/06 08:10:04;;;;;;;0.40;0.40;;;11.30;99.90;11.80;101427.00;;;;5090628;28;20590;-69
2023/01/06 08:12:30;;;;;;;4.00;0.93;;;11.30;99.90;11.80;101431.00;;;;5077996;28;20221;-68
2023/01/06 08:14:56;;;;;;;0.60;0.60;;;11.40;99.90;11.80;101438.00;;;;5091855;28;20214;-68
2023/01/06 08:17:41;;;;;;;0.30;0.30;;;11.30;99.90;11.60;101390.00;;;;5088486;28;20340;-68
2023/01/06 08:20:16;;;;;;;0.50;0.50;;;11.20;99.90;11.80;101450.00;;;;5080834;28;20724;-68
2023/01/06 08:22:42;;;;;;;1.03;1.03;;;11.30;99.90;11.60;101437.00;;;;5074624;28;20681;-68
2023/01/06 08:25:09;;;;;;;0.87;0.87;;;11.30;99.90;11.70;101472.00;;;;5084196;28;20212;-68
2023/01/06 08:27:42;;;;;;;0.27;0.27;;;11.30;99.90;11.70;101459.00;;;;5098048;28;20286;-68
2023/01/06 08:30:10;;;;;;;2.17;0.50;;;11.20;99.90;11.30;101465.00;;;;5077176;28;20268;-68
2023/01/06 08:32:35;;;;;;;0.73;0.73;;;11.10;99.90;11.80;101417.00;;;;5083757;28;20221;-68
2023/01/06 08:35:01;;;;;;;0.30;0.30;;;11.20;99.90;12.00;101467.00;;;;5080704;28;20222;-68
2023/01/06 08:37:27;;;;;;;0.27;0.27;;;11.30;99.90;11.70;101430.00;;;;5073199;28;20205;-68
2023/01/06 08:39:53;;;;;;;0.70;0.70;;;11.20;99.90;11.30;101460.00;;;;5079235;28;20212;-68
2023/01/06 08:42:19;;;;;;;0.40;0.40;;;11.10;99.90;11.60;101468.00;;;;5094942;28;20208;-68
2023/01/06 08:44:49;;;;;;;0.90;0.90;;;11.20;99.90;11.90;101468.00;;;;5107608;28;20207;-68
2023/01/06 08:47:17;;;;;;;0.30;0.30;;;11.30;99.90;11.70;101459.00;;;;5085463;28;20213;-68
2023/01/06 08:49:45;;;;;;;0.67;0.67;;;11.30;99.90;12.00;101471.00;;;;5079381;28;20216;-68
2023/01/06 08:52:14;;;;;;;1.20;1.07;;;11.40;99.90;11.50;101479.00;;;;5109190;28;20247;-68
2023/01/06 08:54:42;;;;;;;0.67;0.67;;;11.40;99.90;11.90;101488.00;;;;5073540;28;20269;-68
2023/01/06 08:57:09;;;;;;;0.30;0.30;;;11.40;99.90;12.10;101489.00;;;;5090496;28;20196;-67
2023/01/06 08:59:35;;;;;;;1.03;1.03;;;11.50;99.90;12.10;101486.00;;;;5073786;28;20559;-68
2023/01/06 09:02:02;;;;;;;0.40;0.40;;;11.60;99.90;12.60;101484.00;;;;5075163;28;20211;-68
2023/01/06 09:04:28;;;;;;;0.67;0.67;;;11.80;99.90;12.30;101478.00;;;;5082437;28;20205;-68
2023/01/06 09:06:55;;;;;;;0.60;0.53;;;11.80;99.90;11.90;101493.00;;;;5092647;28;20209;-68
2023/01/06 09:09:22;;;;;;;0.60;0.60;;;11.70;99.90;12.10;101485.00;;;;5083176;28;20217;-68
2023/01/06 09:11:48;;;;;;;0.30;0.30;;;11.70;99.90;12.10;101494.00;;;;5083151;28;20209;-68
2023/01/06 09:14:23;;;;;;;0.97;0.87;;;11.70;99.90;12.00;101485.00;;;;5105810;28;20205;-68
2023/01/06 09:16:48;;;;;;;1.20;0.60;;;11.70;99.90;12.40;101494.00;;;;5094443;28;20195;-68
2023/01/06 09:19:19;;;;;;;0.93;0.83;;;11.80;99.90;12.00;101451.00;;;;5073972;28;20569;-68
2023/01/06 09:21:45;;;;;;;0.67;0.67;;;11.80;99.90;12.30;101490.00;;;;5068172;28;20196;-68
2023/01/06 09:24:14;;;;;;;0.40;0.40;;;11.90;99.90;12.40;101497.00;;;;5074452;28;20195;-68
2023/01/06 09:26:40;;;;;;;0.23;0.23;;;12.00;99.90;12.70;101493.00;;;;5090571;28;20217;-68
2023/01/06 09:29:06;;;;;;;0.63;0.63;;;12.00;99.90;12.40;101493.00;;;;5062506;28;20677;-68
2023/01/06 09:31:39;;;;;;;1.03;1.03;;;12.00;99.90;12.10;101496.00;;;;5069259;28;20198;-68
2023/01/06 09:34:04;;;;;;;3.23;1.30;;;11.90;99.90;12.00;101505.00;;;;5106633;28;20205;-66
2023/01/06 09:36:31;;;;;;;0.40;0.40;;;11.80;99.90;12.00;101508.00;;;;5090243;28;20215;-68
2023/01/06 09:38:57;;;;;;;2.00;1.13;;;11.80;99.90;12.30;101517.00;;;;5057502;28;20239;-69
2023/01/06 09:42:07;;;;;;;0.93;0.90;;;11.90;99.90;12.20;101522.00;;;;5090946;28;20207;-67
2023/01/06 09:44:49;;;;;;;0.27;0.27;;;11.90;99.90;12.20;101526.00;;;;5101815;28;20569;-67
2023/01/06 09:47:22;;;;;;;0.43;0.43;;;11.90;99.90;12.30;101475.00;;;;5068691;28;20286;-68
2023/01/06 09:50:07;;;;;;;0.73;0.73;;;12.00;99.90;12.30;101516.00;;;;5068734;28;20234;-69
2023/01/06 09:52:43;;;;;;;0.20;0.20;;;11.90;99.90;12.20;101515.00;;;;5061865;28;20215;-67
2023/01/06 09:55:45;;;;;;;3.20;1.13;;;11.90;99.90;12.50;101531.00;;;;5067664;28;20197;-67
2023/01/06 09:58:27;;;;;;;0.80;0.80;;;12.00;99.90;13.10;101520.00;;;;5060561;28;20216;-67
2023/01/06 10:00:55;;;;;;;1.40;1.40;;;12.30;99.90;13.70;101497.00;;;;5068885;28;20210;-68
2023/01/06 10:03:25;;;;;;;0.60;0.60;;;12.60;99.90;12.50;101509.00;;;;5062303;28;20684;-68
2023/01/06 10:06:16;;;;;;;0.27;0.27;;;12.50;99.90;12.80;101520.00;;;;5081202;28;20210;-68
2023/01/06 10:09:11;;;;;;;0.80;0.80;;;12.40;99.90;12.90;101512.00;;;;5083717;28;20257;-68
2023/01/06 10:11:55;;;;;;;0.63;0.63;;;12.70;99.90;13.00;101512.00;;;;5104037;28;20218;-67
2023/01/06 10:14:57;;;;;;;0.27;0.27;;;12.60;99.90;13.00;101522.00;;;;5095413;28;20213;-67
2023/01/06 10:17:35;;;;;;;0.40;0.40;;;12.60;99.90;12.70;101519.00;;;;5068969;28;20686;-67
2023/01/06 10:20:16;;;;;;;2.93;1.30;;;12.50;99.90;12.70;101521.00;;;;5075871;28;20265;-67
2023/01/06 10:33:34;;;;;;;1.30;1.10;;;12.30;99.90;12.60;101543.00;;;;5070059;28;20546;-67
2023/01/06 10:36:00;;;;;;;0.20;0.20;;;12.30;99.90;12.70;101534.00;;;;5049060;28;20585;-67
2023/01/06 10:38:50;;;;;;;0.30;0.30;;;12.30;99.90;12.50;101531.00;;;;5051410;28;20280;-68
2023/01/06 10:41:26;;;;;;;0.30;0.30;;;12.30;99.90;12.70;101518.00;;;;5048579;28;20318;-68
2023/01/06 10:43:52;;;;;;;0.20;0.20;;;12.30;99.90;13.50;101503.00;;;;5050574;28;20191;-68
2023/01/06 10:46:18;;;;;;;0.93;0.93;;;12.50;99.90;12.50;101508.00;;;;5031170;28;20190;-66
2023/01/06 10:48:45;;;;;;;0.23;0.23;;;12.30;99.90;12.60;101515.00;;;;5049075;28;20190;-66
2023/01/06 10:51:35;;;;;;;0.70;0.70;;;12.20;99.90;13.00;101505.00;;;;5048270;28;20183;-66
2023/01/06 10:54:26;;;;;;;0.70;0.70;;;12.40;99.90;13.30;101498.00;;;;5055619;28;20190;-67
2023/01/06 10:57:00;;;;;;;0.33;0.33;;;12.50;99.90;13.80;101499.00;;;;5047272;28;20541;-67
2023/01/06 10:59:27;;;;;;;0.50;0.50;;;12.80;99.90;13.30;101488.00;;;;5048650;28;20191;-67
2023/01/06 11:01:55;;;;;;;0.20;0.20;;;12.70;99.90;13.60;101483.00;;;;5039925;28;20211;-67
2023/01/06 11:04:25;;;;;;;0.30;0.30;;;12.80;99.90;12.80;101486.00;;;;5037427;28;20190;-67
2023/01/06 11:07:10;;;;;;;2.67;0.87;;;12.50;99.90;12.20;101484.00;;;;5048598;28;20262;-67
2023/01/06 11:09:35;;;;;;;2.63;1.27;;;12.10;99.90;13.90;101482.00;;;;5046659;28;20195;-67
2023/01/06 11:12:19;;;;;;;0.60;0.60;;;12.70;99.90;13.40;101460.00;;;;5049851;28;20190;-67
2023/01/06 11:15:03;;;;;;;0.30;0.30;;;12.60;99.90;13.40;101473.00;;;;5044416;28;20182;-67
2023/01/06 11:17:30;;;;;;;0.97;0.90;;;12.80;99.90;14.30;101478.00;;;;5048298;28;20177;-66
2023/01/06 11:20:29;;;;;;;0.20;0.20;;;12.90;99.90;14.60;101467.00;;;;5047952;28;20189;-68
2023/01/06 11:23:21;;;;;;;0.33;0.33;;;13.20;99.90;13.30;101406.00;;;;5024699;28;20276;-68
2023/01/06 11:26:16;;;;;;;0.20;0.20;;;12.80;99.90;14.00;101462.00;;;;5029342;28;20193;-68
2023/01/06 11:28:47;;;;;;;0.30;0.30;;;13.20;99.90;13.90;101466.00;;;;5047999;28;20278;-67
2023/01/06 11:31:13;;;;;;;0.20;0.20;;;13.00;99.90;15.50;101470.00;;;;5047899;28;20551;-67
2023/01/06 11:33:54;;;;;;;0.30;0.30;;;13.80;99.90;15.60;101476.00;;;;5049011;28;20200;-70
2023/01/06 11:36:23;;;;;;;0.60;0.30;;;14.10;99.90;15.40;101476.00;;;;5030954;28;20606;-68
2023/01/06 11:39:05;;;;;;;0.40;0.40;;;14.30;99.90;14.40;101461.00;;;;5036126;28;20176;-70
2023/01/06 11:41:38;;;;;;;0.20;0.20;;;13.70;99.90;13.70;101459.00;;;;5046935;28;20293;-66
2023/01/06 11:44:13;;;;;;;0.30;0.30;;;13.30;99.90;14.70;101442.00;;;;5039238;28;20187;-66
2023/01/06 11:46:51;;;;;;;0.20;0.20;;;13.50;99.90;14.40;101468.00;;;;5034476;28;20206;-66
2023/01/06 11:49:51;;;;;;;0.20;0.20;;;13.40;99.90;14.40;101441.00;;;;5025684;28;20206;-66
2023/01/06 11:52:31;;;;;;;0.63;0.63;;;13.50;99.90;13.70;101468.00;;;;5041149;28;20189;-66
2023/01/06 11:55:05;;;;;;;0.20;0.20;;;13.20;99.90;13.00;101453.00;;;;5035243;28;20240;-66
2023/01/06 11:58:05;;;;;;;0.70;0.70;;;12.70;99.90;13.00;101451.00;;;;5035380;28;20197;-66
2023/01/06 12:00:41;;;;;;;0.60;0.60;;;12.50;99.90;12.90;101442.00;;;;5035558;28;20332;-66
2023/01/06 12:03:29;;;;;;;1.37;0.70;;;12.40;99.90;12.70;101458.00;;;;5042564;28;20224;-66
2023/01/06 12:06:50;;;;;;;0.30;0.30;;;12.30;99.90;14.40;101464.00;;;;5035386;28;20303;-67
2023/01/06 12:09:23;;;;;;;0.20;0.20;;;12.80;99.90;13.20;101448.00;;;;5025833;28;20224;-64
2023/01/06 12:11:54;;;;;;;0.63;0.63;;;12.50;99.90;14.40;101451.00;;;;5034307;28;20202;-66
2023/01/06 12:14:32;;;;;;;1.37;1.00;;;12.90;99.90;13.80;101460.00;;;;5033587;28;20195;-65
2023/01/06 12:17:22;;;;;;;0.20;0.20;;;13.10;99.90;13.30;101451.00;;;;5033462;28;20190;-66
2023/01/06 12:20:23;;;;;;;0.20;0.20;;;12.70;99.90;13.80;101445.00;;;;5035042;28;20233;-66
2023/01/06 12:23:04;;;;;;;0.40;0.40;;;12.70;99.90;14.00;101447.00;;;;5023351;28;20247;-66
2023/01/06 12:25:43;;;;;;;0.23;0.23;;;13.00;99.90;13.30;101444.00;;;;5057360;28;20730;-66
2023/01/06 12:28:18;;;;;;;1.03;0.87;;;12.80;99.90;12.80;101445.00;;;;5017420;28;20201;-66
2023/01/06 12:31:04;;;;;;;11.63;1.03;;;12.40;99.90;13.10;101450.00;;;;5016929;28;20638;-66
2023/01/06 12:34:06;;;;;;;0.20;0.20;;;12.60;99.90;13.70;101451.00;;;;5033878;28;20522;-69
2023/01/06 12:36:54;;;;;;;0.20;0.20;;;12.90;99.90;14.70;101448.00;;;;5033485;28;20208;-67
2023/01/06 12:39:28;;;;;;;0.30;0.30;;;13.00;99.90;13.40;101438.00;;;;5033190;28;20700;-66
2023/01/06 12:42:28;;;;;;;0.37;0.37;;;13.00;99.90;14.00;101391.00;;;;5034549;28;20206;-66
2023/01/06 12:45:03;;;;;;;0.30;0.30;;;13.10;99.90;14.90;101438.00;;;;5026879;28;20668;-66
2023/01/06 12:47:57;;;;;;;3.07;0.83;;;13.50;99.90;14.70;101440.00;;;;5029103;28;20222;-67
2023/01/06 12:50:39;;;;;;;0.63;0.63;;;13.60;99.90;13.50;101436.00;;;;5062695;28;20713;-71
2023/01/06 12:53:21;;;;;;;1.80;1.70;;;13.20;99.90;14.40;101419.00;;;;5033114;28;20189;-72
2023/01/06 12:56:01;;;;;;;0.20;0.20;;;13.50;99.90;14.50;101442.00;;;;5013131;28;20188;-73
2023/01/06 12:58:30;;;;;;;0.60;0.60;;;13.50;99.90;14.20;101439.00;;;;5029713;28;20194;-66
2023/01/06 13:01:07;;;;;;;0.40;0.40;;;13.40;99.90;13.10;101441.00;;;;5064080;28;20210;-66
2023/01/06 13:04:18;;;;;;;0.73;0.63;;;12.90;99.90;13.00;101439.00;;;;5033132;28;20187;-66
2023/01/06 13:07:41;;;;;;;0.50;0.50;;;12.60;99.90;12.80;101445.00;;;;5034214;28;20189;-69
2023/01/06 13:10:31;;;;;;;0.57;0.57;;;12.50;99.90;14.20;101450.00;;;;5033382;28;20187;-66
2023/01/06 13:13:19;;;;;;;0.40;0.40;;;12.80;99.90;13.40;101458.00;;;;5033835;28;20191;-64
2023/01/06 13:15:46;;;;;;;0.30;0.30;;;12.60;99.90;14.90;101413.00;;;;5034179;28;20186;-65
2023/01/06 13:18:43;;;;;;;0.30;0.30;;;13.10;99.90;14.90;101443.00;;;;5016157;28;20663;-65
2023/01/06 13:21:18;;;;;;;0.30;0.30;;;13.50;99.90;14.90;101441.00;;;;5033102;28;20186;-65
2023/01/06 13:24:29;;;;;;;0.60;0.50;;;13.60;99.90;13.60;101385.00;;;;5032470;28;20198;-65
2023/01/06 13:27:37;;;;;;;0.20;0.20;;;13.20;99.90;12.90;101417.00;;;;4992019;28;20664;-65
2023/01/06 13:30:49;;;;;;;0.30;0.30;;;12.40;99.90;13.10;101455.00;;;;4991705;28;20632;-66
2023/01/06 13:33:43;;;;;;;0.20;0.20;;;12.40;99.90;13.60;101466.00;;;;5020435;28;20212;-68
2023/01/06 13:36:34;;;;;;;0.30;0.30;;;12.50;99.90;14.10;101466.00;;;;5032519;28;20205;-65
2023/01/06 13:39:19;;;;;;;0.20;0.20;;;12.60;99.90;13.00;101472.00;;;;5030286;28;20192;-63
2023/01/06 13:41:52;;;;;;;0.43;0.43;;;12.40;99.90;13.70;101466.00;;;;5046574;28;20202;-63
2023/01/06 13:44:24;;;;;;;0.60;0.60;;;12.60;99.90;13.50;101469.00;;;;5024246;28;20651;-65
2023/01/06 13:46:56;;;;;;;0.23;0.23;;;12.60;99.90;12.70;101466.00;;;;5032369;28;20178;-65
2023/01/06 13:49:22;;;;;;;0.53;0.53;;;12.30;99.90;12.90;101475.00;;;;5032328;28;20194;-65
2023/01/06 13:51:52;;;;;;;0.20;0.20;;;12.20;99.90;14.00;101468.00;;;;5032874;28;20204;-65
2023/01/06 13:54:39;;;;;;;0.30;0.30;;;12.60;99.90;13.90;101474.00;;;;5031022;28;20704;-65
2023/01/06 13:57:43;;;;;;;0.93;0.93;;;12.70;99.90;13.50;101462.00;;;;5021274;28;20184;-65
2023/01/06 14:00:09;;;;;;;0.30;0.30;;;12.70;99.90;13.60;101467.00;;;;5011886;28;20202;-66
2023/01/06 14:02:37;;;;;;;0.20;0.20;;;12.60;99.90;14.50;101464.00;;;;5040335;28;20567;-66
2023/01/06 14:05:19;;;;;;;1.13;1.03;;;12.80;99.90;14.60;101460.00;;;;5033310;28;20190;-65
2023/01/06 14:08:02;;;;;;;0.30;0.30;;;13.10;99.90;14.50;101455.00;;;;5041420;28;20187;-65
2023/01/06 14:10:40;;;;;;;0.30;0.30;;;13.20;99.90;13.50;101462.00;;;;5031038;28;20176;-65
2023/01/06 14:13:21;;;;;;;0.20;0.20;;;12.80;99.90;13.60;101456.00;;;;5020040;28;20183;-66
2023/01/06 14:16:12;;;;;;;0.50;0.50;;;12.70;99.90;14.20;101458.00;;;;5026408;28;20186;-65
2023/01/06 14:19:02;;;;;;;0.33;0.33;;;12.80;99.90;14.40;101446.00;;;;5031574;28;20244;-65
2023/01/06 14:21:34;;;;;;;0.30;0.30;;;13.00;99.90;15.00;101433.00;;;;5026224;28;20203;-65
2023/01/06 14:24:18;;;;;;;0.30;0.30;;;13.20;99.90;14.70;101437.00;;;;5014190;28;20196;-65
2023/01/06 14:27:06;;;;;;;0.30;0.30;;;13.20;99.90;14.40;101439.00;;;;5031578;28;20599;-65
2023/01/06 14:29:42;;;;;;;0.30;0.30;;;13.30;99.90;14.10;101388.00;;;;5015275;28;20646;-65
2023/01/06 14:32:14;;;;;;;0.30;0.30;;;13.00;99.90;14.90;101437.00;;;;5032518;28;20287;-65
2023/01/06 14:34:57;;;;;;;0.30;0.30;;;13.20;99.90;14.10;101438.00;;;;5033027;28;20211;-65
2023/01/06 14:37:39;;;;;;;0.20;0.20;;;13.10;99.90;13.90;101436.00;;;;5024418;28;20228;-65
2023/01/06 14:40:06;;;;;;;0.20;0.20;;;12.80;99.90;14.50;101432.00;;;;5029844;28;20210;-66
2023/01/06 14:42:43;;;;;;;0.30;0.30;;;13.00;99.90;14.60;101375.00;;;;5011822;28;20217;-66
2023/01/06 14:45:24;;;;;;;0.40;0.40;;;13.10;99.90;14.60;101430.00;;;;5062368;28;20179;-65
2023/01/06 14:48:06;;;;;;;0.50;0.50;;;13.10;99.90;14.00;101420.00;;;;5022816;28;20183;-66
2023/01/06 14:50:41;;;;;;;0.30;0.30;;;13.10;99.90;14.80;101426.00;;;;5031348;28;20224;-66
2023/01/06 14:53:41;;;;;;;0.30;0.30;;;13.10;99.90;14.40;101410.00;;;;5031641;28;20190;-65
2023/01/06 14:56:20;;;;;;;0.30;0.30;;;13.00;99.90;15.00;101413.00;;;;5021231;28;20205;-66
2023/01/06 14:58:46;;;;;;;0.23;0.23;;;13.30;99.90;14.50;101407.00;;;;5032349;28;20598;-66
2023/01/06 15:01:27;;;;;;;2.50;1.37;;;13.20;99.90;13.60;101397.00;;;;5032334;28;20194;-65
2023/01/06 15:03:58;;;;;;;0.20;0.20;;;12.90;99.90;13.30;101433.00;;;;5024128;28;20639;-65
2023/01/06 15:06:35;;;;;;;0.37;0.37;;;12.60;99.90;14.30;101429.00;;;;5029775;28;20198;-66
2023/01/06 15:09:18;;;;;;;0.30;0.30;;;12.70;99.90;14.20;101419.00;;;;5037641;28;20205;-66
2023/01/06 15:11:44;;;;;;;0.30;0.30;;;12.90;99.90;13.80;101408.00;;;;5031629;28;20527;-65
2023/01/06 15:14:32;;;;;;;0.20;0.20;;;12.70;99.90;13.30;101395.00;;;;5032070;28;20219;-65
2023/01/06 15:17:03;;;;;;;0.30;0.30;;;12.60;99.90;13.40;101417.00;;;;5030867;28;20191;-65
2023/01/06 15:19:29;;;;;;;0.30;0.30;;;12.50;99.90;13.50;101430.00;;;;5033227;28;20273;-65
2023/01/06 15:22:07;;;;;;;1.07;0.80;;;12.50;99.90;14.10;101430.00;;;;5068669;28;20324;-65
2023/01/06 15:24:38;;;;;;;0.30;0.30;;;12.70;99.90;14.10;101420.00;;;;5031635;28;20186;-65
2023/01/06 15:27:13;;;;;;;0.30;0.30;;;12.80;99.90;14.40;101411.00;;;;5026108;28;20182;-68
2023/01/06 15:29:55;;;;;;;0.30;0.30;;;12.90;99.90;13.90;101413.00;;;;5031920;28;20209;-66
2023/01/06 15:32:25;;;;;;;0.20;0.20;;;12.80;99.90;13.60;101412.00;;;;5034476;28;20588;-67
2023/01/06 15:34:58;;;;;;;0.30;0.30;;;12.60;99.90;13.60;101410.00;;;;5031712;28;20267;-67
2023/01/06 15:37:29;;;;;;;0.20;0.20;;;12.60;99.90;13.70;101384.00;;;;5034646;28;20752;-67
2023/01/06 15:39:56;;;;;;;0.30;0.30;;;12.60;99.90;13.70;101409.00;;;;5018464;28;20576;-64
2023/01/06 15:42:26;;;;;;;0.30;0.30;;;12.60;99.90;14.00;101421.00;;;;5034571;28;20234;-69
2023/01/06 15:45:03;;;;;;;0.30;0.30;;;12.60;99.90;14.40;101412.00;;;;5035734;28;20275;-69
2023/01/06 15:47:44;;;;;;;0.20;0.20;;;12.80;99.90;13.70;101395.00;;;;5024757;28;20191;-68
2023/01/06 15:50:24;;;;;;;0.30;0.30;;;12.60;99.90;13.80;101399.00;;;;5034568;28;20189;-69
2023/01/06 15:52:54;;;;;;;0.23;0.23;;;12.70;99.90;13.80;101404.00;;;;5034233;28;20245;-68
2023/01/06 15:55:25;;;;;;;0.77;0.77;;;12.70;99.90;13.30;101365.00;;;;5017711;28;20197;-68
2023/01/06 15:58:16;;;;;;;0.40;0.40;;;12.50;99.90;13.70;101404.00;;;;5034747;28;20621;-68
2023/01/06 16:00:57;;;;;;;0.60;0.53;;;12.50;99.90;13.50;101414.00;;;;5036255;28;20200;-69
2023/01/06 16:03:30;;;;;;;0.20;0.20;;;12.60;99.90;13.90;101413.00;;;;5035364;28;20212;-70
2023/01/06 16:06:09;;;;;;;0.97;0.97;;;12.60;99.90;14.30;101405.00;;;;5019232;28;20694;-71
2023/01/06 16:08:38;;;;;;;0.43;0.43;;;12.90;99.90;13.50;101411.00;;;;5017921;28;20190;-70
2023/01/06 16:11:16;;;;;;;0.60;0.47;;;12.70;99.90;14.10;101412.00;;;;5014804;28;20175;-69
2023/01/06 16:13:54;;;;;;;0.50;0.50;;;12.80;99.90;13.60;101404.00;;;;5032654;28;20272;-70
2023/01/06 16:16:26;;;;;;;0.30;0.30;;;12.60;99.90;13.70;101399.00;;;;5033618;28;20197;-69
2023/01/06 16:18:53;;;;;;;0.97;0.97;;;12.60;99.90;13.40;101397.00;;;;5034233;28;20190;-69
2023/01/06 16:21:25;;;;;;;0.30;0.30;;;12.60;99.90;13.50;101407.00;;;;5046912;28;20649;-68
2023/01/06 16:24:29;;;;;;;1.87;1.77;;;12.60;99.90;14.20;101394.00;;;;5067025;28;20190;-69
2023/01/06 16:27:12;;;;;;;0.20;0.20;;;12.70;99.90;13.50;101398.00;;;;5033987;28;20221;-68
2023/01/06 16:29:38;;;;;;;0.70;0.70;;;12.50;99.90;13.80;101409.00;;;;5033084;28;20227;-68
2023/01/06 16:32:34;;;;;;;0.67;0.67;;;12.50;99.90;13.40;101410.00;;;;5033224;28;20238;-68
2023/01/06 16:35:05;;;;;;;0.30;0.30;;;12.50;99.90;13.80;101405.00;;;;5033605;28;20189;-68
2023/01/06 16:37:34;;;;;;;0.60;0.50;;;12.50;99.90;12.80;101364.00;;;;5026384;28;20217;-68
2023/01/06 16:40:03;;;;;;;0.20;0.20;;;12.30;99.90;13.50;101405.00;;;;5033061;28;20185;-68
2023/01/06 16:42:39;;;;;;;0.20;0.20;;;12.40;99.90;13.30;101409.00;;;;5016231;28;20211;-69
2023/01/06 16:45:34;;;;;;;0.20;0.20;;;12.20;99.90;13.50;101417.00;;;;5034141;28;20699;-69
2023/01/06 16:48:00;;;;;;;0.30;0.30;;;12.30;99.90;13.40;101399.00;;;;5015548;28;20659;-68
2023/01/06 16:50:37;;;;;;;0.40;0.40;;;12.20;99.90;13.50;101406.00;;;;5034812;28;20187;-68
2023/01/06 16:53:17;;;;;;;0.87;0.87;;;12.30;99.90;13.40;101406.00;;;;5025042;28;20645;-69
2023/01/06 16:55:43;;;;;;;0.30;0.30;;;12.30;99.90;13.40;101417.00;;;;5034731;28;20186;-69
2023/01/06 16:58:16;;;;;;;0.33;0.33;;;12.10;99.90;13.40;101357.00;;;;5033285;28;20646;-69
2023/01/06 17:00:46;;;;;;;0.20;0.20;;;12.20;99.90;13.30;101404.00;;;;5033468;28;20191;-69
2023/01/06 17:03:35;;;;;;;0.40;0.40;;;12.10;99.90;13.50;101409.00;;;;5032967;28;20862;-68
2023/01/06 17:06:02;;;;;;;0.20;0.20;;;12.10;99.90;13.40;101405.00;;;;5034254;28;20261;-69
2023/01/06 17:08:35;;;;;;;0.20;0.20;;;12.20;99.90;13.30;101409.00;;;;5032999;28;20186;-69
2023/01/06 17:11:23;;;;;;;0.30;0.30;;;12.20;99.90;13.20;101405.00;;;;5033419;28;20192;-69
2023/01/06 17:14:02;;;;;;;0.93;0.93;;;12.20;99.90;13.00;101415.00;;;;5022267;28;20212;-68
2023/01/06 17:16:35;;;;;;;0.30;0.30;;;12.10;99.90;12.80;101404.00;;;;5033126;28;20632;-68
2023/01/06 17:19:15;;;;;;;0.90;0.90;;;12.00;99.90;12.40;101417.00;;;;5032718;28;20211;-68
2023/01/06 17:21:48;;;;;;;0.20;0.20;;;11.90;99.90;12.80;101415.00;;;;5023536;28;20227;-69
2023/01/06 17:24:24;;;;;;;0.20;0.20;;;11.90;99.90;13.10;101427.00;;;;5015864;28;20178;-69
2023/01/06 17:27:24;;;;;;;0.23;0.23;;;12.00;99.90;13.20;101431.00;;;;5016439;28;20180;-70
2023/01/06 17:29:51;;;;;;;0.40;0.40;;;11.90;99.90;13.00;101425.00;;;;5009529;28;20181;-70
2023/01/06 17:32:36;;;;;;;1.13;1.13;;;12.00;99.90;13.10;101431.00;;;;5032312;28;20227;-70
2023/01/06 17:35:15;;;;;;;0.30;0.30;;;12.00;99.90;13.20;101413.00;;;;5033772;28;20185;-70
2023/01/06 17:37:41;;;;;;;0.30;0.30;;;12.10;99.90;13.10;101396.00;;;;5033177;28;20222;-70
2023/01/06 17:40:18;;;;;;;0.43;0.43;;;12.00;99.90;12.80;101406.00;;;;5016163;28;20251;-71
2023/01/06 17:42:58;;;;;;;0.60;0.60;;;12.00;99.90;13.30;101412.00;;;;5032112;28;20587;-70
2023/01/06 17:45:26;;;;;;;0.50;0.50;;;12.00;99.90;13.10;101405.00;;;;5033311;28;20189;-70
2023/01/06 17:47:53;;;;;;;0.37;0.37;;;12.10;99.90;13.00;101420.00;;;;5032554;28;20192;-70
2023/01/06 17:50:25;;;;;;;0.57;0.57;;;11.90;99.90;13.20;101409.00;;;;5032393;28;20615;-70
2023/01/06 17:55:46;;;;;;;0.30;0.30;;;12.10;99.90;13.10;101398.00;;;;5032344;28;20675;-70
2023/01/06 17:58:18;;;;;;;0.57;0.57;;;12.10;99.90;12.60;101419.00;;;;5032047;28;20226;-70
2023/01/06 18:00:48;;;;;;;0.60;0.60;;;11.90;99.90;13.00;101415.00;;;;5033535;28;20175;-70
2023/01/06 18:03:26;;;;;;;0.20;0.20;;;12.00;99.90;13.60;101376.00;;;;5016253;28;20568;-70
2023/01/06 18:06:18;;;;;;;1.03;1.03;;;12.20;99.90;13.30;101415.00;;;;5031935;28;20195;-70
2023/01/06 18:08:53;;;;;;;0.20;0.20;;;12.20;99.90;13.70;101410.00;;;;5032160;28;20541;-70
2023/01/06 18:11:38;;;;;;;1.03;1.03;;;12.30;99.90;13.50;101417.00;;;;5064407;28;20179;-70
2023/01/06 18:14:24;;;;;;;0.20;0.20;;;12.40;99.90;13.20;101418.00;;;;5031662;28;20186;-70
2023/01/06 18:16:55;;;;;;;0.30;0.30;;;12.30;99.90;13.70;101403.00;;;;5058705;28;20175;-71
2023/01/06 18:19:36;;;;;;;0.30;0.30;;;12.40;99.90;14.00;101408.00;;;;5027805;28;20187;-70
2023/01/06 18:22:18;;;;;;;0.60;0.60;;;12.50;99.90;13.20;101411.00;;;;5032095;28;20654;-70
2023/01/06 18:24:46;;;;;;;0.20;0.20;;;12.40;99.90;13.40;101371.00;;;;5040876;28;20524;-70
2023/01/06 18:27:24;;;;;;;0.27;0.27;;;12.30;99.90;13.50;101413.00;;;;5031686;28;20243;-70
2023/01/06 18:29:51;;;;;;;0.57;0.57;;;12.30;99.90;13.10;101404.00;;;;5015455;28;20284;-70
2023/01/06 18:32:19;;;;;;;0.57;0.57;;;12.30;99.90;14.10;101417.00;;;;5031785;28;20198;-70
2023/01/06 18:34:52;;;;;;;0.57;0.57;;;12.60;99.90;14.20;101395.00;;;;5032860;28;20222;-71
2023/01/06 18:37:24;;;;;;;0.47;0.47;;;12.80;99.90;14.00;101403.00;;;;5031444;28;20191;-70
2023/01/06 18:39:53;;;;;;;0.30;0.30;;;12.70;99.90;13.70;101394.00;;;;5031851;28;20222;-70
2023/01/06 18:42:25;;;;;;;1.53;1.07;;;12.70;99.90;12.80;101398.00;;;;5031338;28;20208;-70
2023/01/06 18:45:34;;;;;;;0.40;0.40;;;12.40;99.90;13.30;101408.00;;;;5032582;28;20261;-70
2023/01/06 18:48:17;;;;;;;0.20;0.20;;;12.30;99.90;13.40;101392.00;;;;5032096;28;20189;-71
2023/01/06 18:50:45;;;;;;;0.40;0.40;;;12.30;99.90;13.50;101396.00;;;;5015121;28;20277;-70
2023/01/06 18:53:14;;;;;;;0.40;0.40;;;12.40;99.90;13.60;101401.00;;;;5032415;28;20212;-71
2023/01/06 18:55:50;;;;;;;0.30;0.30;;;12.40;99.90;13.60;101351.00;;;;5036343;28;20180;-71
2023/01/06 18:58:47;;;;;;;0.63;0.63;;;12.30;99.90;13.30;101397.00;;;;5035737;28;20703;-71
2023/01/06 19:01:49;;;;;;;0.30;0.30;;;12.40;99.90;13.30;101405.00;;;;5030854;28;20175;-71
2023/01/06 19:04:29;;;;;;;0.97;0.97;;;12.40;99.90;13.20;101409.00;;;;5035526;28;20203;-71
2023/01/06 19:07:07;;;;;;;0.60;0.60;;;12.20;99.90;13.50;101416.00;;;;5034964;28;20188;-71
2023/01/06 19:09:46;;;;;;;0.40;0.40;;;12.20;99.90;13.50;101414.00;;;;5036835;28;20189;-71
2023/01/06 19:12:18;;;;;;;3.30;3.00;;;12.30;99.90;13.10;101421.00;;;;5028546;28;20185;-71
2023/01/06 19:14:50;;;;;;;0.40;0.40;;;12.10;99.90;13.20;101419.00;;;;5036341;28;20189;-71
2023/01/06 19:17:42;;;;;;;0.20;0.20;;;12.10;99.90;13.30;101406.00;;;;5036521;28;20225;-71
2023/01/06 19:20:18;;;;;;;0.53;0.53;;;12.10;99.90;13.20;101380.00;;;;5023261;28;20195;-71